createdAt,value
2023-04-11T00:00:01.716Z,208.0
2023-04-11T00:05:02.028Z,224.6
2023-04-11T00:10:01.673Z,223.1
2023-04-11T00:15:06.711Z,227.6
2023-04-11T00:20:01.800Z,240.8
2023-04-11T00:25:01.854Z,243.0
2023-04-11T00:30:01.688Z,214.8
2023-04-11T00:35:06.721Z,186.2
2023-04-11T00:40:01.636Z,168.0
2023-04-11T00:45:06.723Z,144.5
2023-04-11T00:50:01.629Z,127.9
2023-04-11T00:55:06.396Z,149.4
2023-04-11T01:00:01.689Z,171.8
2023-04-11T01:05:01.711Z,162.8
2023-04-11T01:10:01.633Z,147.4
2023-04-11T01:15:01.684Z,129.2
2023-04-11T01:20:01.997Z,102.8
2023-04-11T01:25:01.726Z,74.1
2023-04-11T01:30:06.598Z,68.7
2023-04-11T01:35:01.795Z,66.5
2023-04-11T01:40:06.625Z,66.2
2023-04-11T01:45:02.103Z,66.3
2023-04-11T01:50:01.663Z,66.8
2023-04-11T01:55:01.667Z,67.5
2023-04-11T02:00:06.729Z,72.1
2023-04-11T02:05:02.000Z,76.6
2023-04-11T02:10:01.871Z,80.7
2023-04-11T02:15:01.717Z,83.3
2023-04-11T02:20:01.584Z,85.9
2023-04-11T02:25:02.122Z,83.1
2023-04-11T02:30:01.707Z,79.8
2023-04-11T02:35:01.925Z,76.4
2023-04-11T02:40:01.518Z,75.0
2023-04-11T02:45:02.236Z,73.4
2023-04-11T02:55:01.707Z,74.8
2023-04-11T03:00:02.027Z,75.8
2023-04-11T03:05:01.666Z,97.8
2023-04-11T03:10:01.546Z,97.8
2023-04-11T03:15:01.591Z,97.3
2023-04-11T03:20:01.803Z,97.7
2023-04-11T03:25:01.859Z,97.8
2023-04-11T03:30:01.720Z,77.4
2023-04-11T03:35:01.573Z,74.1
2023-04-11T03:40:01.874Z,71.6
2023-04-11T03:50:01.505Z,97.4
2023-04-11T03:55:01.629Z,96.8
2023-04-11T04:15:01.586Z,82.2
2023-04-11T04:25:01.506Z,94.5
2023-04-11T04:30:04.759Z,103.6
2023-04-11T04:35:01.504Z,109.0
2023-04-11T05:00:01.547Z,255.8
2023-04-11T05:05:01.531Z,232.4
2023-04-11T05:10:01.649Z,203.8
2023-04-11T05:20:01.536Z,152.2
2023-04-11T05:25:06.533Z,125.6
2023-04-11T05:35:01.585Z,180.5
2023-04-11T05:40:02.540Z,203.6
2023-04-11T05:50:01.480Z,216.2
2023-04-11T06:05:01.715Z,223.4
2023-04-11T06:10:01.528Z,247.8
2023-04-11T06:15:01.508Z,255.4
2023-04-11T06:20:06.099Z,255.9
2023-04-11T06:25:01.583Z,238.3
2023-04-11T06:30:01.518Z,208.1
2023-04-11T06:35:01.584Z,202.0
2023-04-11T06:40:06.880Z,197.7
2023-04-11T06:45:01.613Z,201.9
2023-04-11T06:50:01.777Z,219.2
2023-04-11T06:55:01.538Z,260.0
2023-04-11T07:00:01.425Z,268.1
2023-04-11T07:05:01.650Z,273.0
2023-04-11T07:10:01.410Z,272.3
2023-04-11T07:15:01.572Z,259.0
2023-04-11T07:20:01.457Z,237.7
2023-04-11T07:25:01.591Z,203.8
2023-04-11T07:40:01.778Z,111.0
2023-04-11T07:45:01.424Z,110.0
2023-04-11T07:50:01.371Z,113.4
2023-04-11T07:55:01.415Z,128.6
2023-04-11T08:00:01.651Z,155.7
2023-04-11T08:10:01.457Z,185.3
2023-04-11T08:15:01.485Z,198.0
2023-04-11T08:20:02.825Z,221.4
2023-04-11T08:25:06.412Z,233.2
2023-04-11T08:30:01.345Z,228.6
2023-04-11T08:45:06.719Z,219.7
2023-04-11T08:55:01.509Z,223.9
2023-04-11T09:00:02.362Z,223.3
2023-04-11T09:05:06.494Z,221.3
2023-04-11T09:25:01.712Z,171.4
2023-04-11T09:30:01.576Z,174.0
2023-04-11T09:35:01.573Z,179.3
2023-04-11T09:55:00.994Z,156.4
2023-04-11T10:00:00.856Z,192.5
2023-04-11T10:05:01.235Z,196.5
2023-04-11T10:10:00.888Z,198.4
2023-04-11T10:15:01.233Z,200.0
2023-04-11T10:20:01.024Z,211.1
2023-04-11T10:35:01.924Z,198.2
2023-04-11T10:55:02.132Z,201.2
2023-04-11T11:15:01.239Z,239.4
2023-04-11T11:20:01.101Z,228.5
2023-04-11T11:30:01.197Z,229.5
2023-04-11T11:35:01.183Z,228.9
2023-04-11T11:55:01.703Z,178.6
2023-04-11T12:00:01.516Z,186.1
2023-04-11T12:05:01.811Z,171.8
2023-04-11T12:10:01.564Z,166.6
2023-04-11T12:15:02.077Z,159.8
2023-04-11T12:20:02.012Z,150.0
2023-04-11T12:25:06.466Z,141.1
2023-04-11T12:30:01.564Z,138.1
2023-04-11T12:35:01.757Z,129.0
2023-04-11T12:40:01.567Z,131.3
2023-04-11T12:50:01.546Z,123.9
2023-04-11T12:55:06.793Z,119.3
2023-04-11T13:00:01.553Z,118.2
2023-04-11T13:05:06.758Z,111.2
2023-04-11T13:10:01.539Z,106.9
2023-04-11T13:15:01.785Z,96.3
2023-04-11T13:20:01.572Z,93.0
2023-04-11T13:25:01.680Z,93.6
2023-04-11T13:35:01.797Z,89.5
2023-04-11T13:40:01.554Z,88.9
2023-04-11T13:45:01.607Z,85.9
2023-04-11T13:50:01.752Z,87.3
2023-04-11T13:55:01.847Z,91.3
2023-04-11T14:00:01.516Z,95.9
2023-04-11T14:05:01.828Z,97.9
2023-04-11T14:10:01.580Z,98.9
2023-04-11T14:20:06.576Z,89.9
2023-04-11T14:25:01.595Z,91.1
2023-04-11T14:45:01.588Z,96.9
2023-04-11T14:50:01.549Z,93.3
2023-04-11T14:55:01.655Z,94.8
2023-04-11T15:00:06.503Z,113.0
2023-04-11T15:05:01.628Z,128.0
2023-04-11T15:10:01.544Z,137.8
2023-04-11T15:15:01.689Z,152.2
2023-04-11T15:20:01.540Z,150.4
2023-04-11T15:25:06.721Z,149.0
2023-04-11T15:30:01.505Z,148.6
2023-04-11T15:35:01.844Z,161.0
2023-04-11T15:40:01.803Z,165.4
2023-04-11T15:45:01.646Z,171.6
2023-04-11T15:50:01.454Z,165.0
2023-04-11T15:55:01.527Z,169.5
2023-04-11T16:00:01.574Z,155.8
2023-04-11T16:05:01.971Z,143.2
2023-04-11T16:10:01.489Z,131.0
2023-04-11T16:15:01.612Z,135.5
2023-04-11T16:20:01.457Z,134.7
2023-04-11T16:25:01.593Z,161.1
2023-04-11T16:35:01.567Z,210.2
2023-04-11T16:40:01.484Z,232.3
2023-04-11T16:50:01.572Z,257.4
2023-04-11T17:00:01.583Z,258.0
2023-04-11T17:15:01.556Z,167.9
2023-04-11T17:20:01.556Z,150.4
2023-04-11T17:30:01.702Z,154.4
2023-04-11T17:35:01.673Z,199.0
2023-04-11T17:40:01.536Z,210.6
2023-04-11T17:50:01.611Z,237.0
2023-04-11T17:55:01.832Z,210.7
2023-04-11T18:00:01.683Z,209.6
2023-04-11T18:05:20.619Z,217.7
2023-04-11T18:10:01.358Z,219.5
2023-04-11T18:15:01.439Z,226.6
2023-04-11T18:20:01.375Z,257.3
2023-04-11T18:25:06.532Z,261.4
2023-04-11T18:30:01.378Z,253.7
2023-04-11T18:35:01.729Z,255.8
2023-04-11T18:40:01.439Z,250.4
2023-04-11T18:45:01.579Z,249.6
2023-04-11T18:50:01.431Z,246.2
2023-04-11T19:00:05.294Z,243.0
2023-04-11T19:05:03.418Z,229.2
2023-04-11T19:10:01.314Z,209.8
2023-04-11T19:25:01.509Z,182.3
2023-04-11T19:30:01.306Z,147.2
2023-04-11T19:35:01.408Z,124.1
2023-04-11T19:40:01.504Z,106.6
2023-04-11T19:45:01.697Z,80.5
2023-04-11T19:50:01.663Z,54.6
2023-04-11T19:55:01.909Z,67.2
2023-04-11T20:00:01.426Z,74.9
2023-04-11T20:10:02.445Z,74.2
2023-04-11T20:15:01.468Z,63.9
2023-04-11T20:20:01.565Z,111.6
2023-04-11T20:25:01.431Z,135.3
2023-04-11T20:35:01.631Z,114.4
2023-04-11T20:40:01.468Z,144.8
2023-04-11T20:45:01.443Z,169.8
2023-04-11T20:50:01.343Z,164.8
2023-04-11T20:55:01.470Z,166.5
2023-04-11T21:00:01.563Z,206.8
2023-04-11T21:05:01.456Z,202.7
2023-04-11T21:10:01.304Z,199.1
2023-04-11T21:15:01.428Z,194.7
2023-04-11T21:20:01.343Z,171.6
2023-04-11T21:25:01.370Z,143.3
2023-04-11T21:30:01.308Z,117.8
2023-04-11T21:40:01.454Z,95.8
2023-04-11T21:45:01.442Z,57.6
2023-04-11T21:50:01.342Z,72.8
2023-04-11T21:55:01.430Z,79.1
2023-04-11T22:00:01.637Z,84.6
2023-04-11T22:05:08.002Z,100.2
2023-04-11T22:10:01.411Z,116.5
2023-04-11T22:20:01.736Z,94.4
2023-04-11T22:25:01.462Z,89.2
2023-04-11T22:30:01.642Z,70.2
2023-04-11T22:35:01.496Z,61.6
2023-04-11T22:40:01.398Z,59.2
2023-04-11T22:45:01.386Z,50.2
2023-04-11T22:50:01.313Z,53.8
2023-04-11T22:55:01.468Z,64.6
2023-04-11T23:00:01.721Z,52.2
2023-04-11T23:05:01.466Z,38.4
2023-04-11T23:10:06.331Z,28.6
2023-04-11T23:15:01.377Z,18.3
2023-04-11T23:25:01.501Z,8.5
2023-04-11T23:30:01.651Z,7.5
2023-04-11T23:35:01.497Z,7.3
2023-04-11T23:40:01.261Z,7.2
2023-04-11T23:45:01.419Z,10.6
2023-04-11T23:50:01.501Z,23.2
2023-04-11T23:55:01.526Z,26.8
